sensor_id;sensor_type;location;lat;lon;timestamp;P1;durP1;ratioP1;P2;durP2;ratioP2
22904;SDS011;11619;50.140;8.518;2023-12-07T00:02:21;14.57;;;12.48;;
22904;SDS011;11619;50.140;8.518;2023-12-07T00:04:48;13.23;;;10.63;;
22904;SDS011;11619;50.140;8.518;2023-12-07T00:07:14;13.18;;;11.75;;
22904;SDS011;11619;50.140;8.518;2023-12-07T00:09:41;13.70;;;11.88;;
22904;SDS011;11619;50.140;8.518;2023-12-07T00:12:07;16.65;;;12.30;;
22904;SDS011;11619;50.140;8.518;2023-12-07T00:14:34;16.38;;;12.00;;
22904;SDS011;11619;50.140;8.518;2023-12-07T00:17:01;12.98;;;10.48;;
22904;SDS011;11619;50.140;8.518;2023-12-07T00:19:27;13.38;;;10.40;;
22904;SDS011;11619;50.140;8.518;2023-12-07T00:21:54;10.93;;;9.82;;
22904;SDS011;11619;50.140;8.518;2023-12-07T00:24:20;12.50;;;11.20;;
22904;SDS011;11619;50.140;8.518;2023-12-07T00:26:46;17.60;;;11.68;;
22904;SDS011;11619;50.140;8.518;2023-12-07T00:29:13;11.80;;;10.50;;
22904;SDS011;11619;50.140;8.518;2023-12-07T00:31:39;16.88;;;11.75;;
22904;SDS011;11619;50.140;8.518;2023-12-07T00:34:06;13.80;;;11.82;;
22904;SDS011;11619;50.140;8.518;2023-12-07T00:36:32;15.07;;;12.05;;
22904;SDS011;11619;50.140;8.518;2023-12-07T00:38:59;14.10;;;10.80;;
22904;SDS011;11619;50.140;8.518;2023-12-07T00:41:26;17.10;;;12.02;;
22904;SDS011;11619;50.140;8.518;2023-12-07T00:43:52;13.15;;;11.02;;
22904;SDS011;11619;50.140;8.518;2023-12-07T00:46:19;14.50;;;11.48;;
22904;SDS011;11619;50.140;8.518;2023-12-07T00:48:45;13.80;;;11.73;;
22904;SDS011;11619;50.140;8.518;2023-12-07T00:51:12;14.77;;;10.88;;
22904;SDS011;11619;50.140;8.518;2023-12-07T00:53:38;14.18;;;12.50;;
22904;SDS011;11619;50.140;8.518;2023-12-07T00:56:05;14.57;;;11.32;;
22904;SDS011;11619;50.140;8.518;2023-12-07T00:58:32;13.52;;;11.40;;
22904;SDS011;11619;50.140;8.518;2023-12-07T01:00:58;11.95;;;10.75;;
22904;SDS011;11619;50.140;8.518;2023-12-07T01:03:25;13.10;;;10.63;;
22904;SDS011;11619;50.140;8.518;2023-12-07T01:05:51;12.80;;;10.32;;
22904;SDS011;11619;50.140;8.518;2023-12-07T01:08:18;14.02;;;11.30;;
22904;SDS011;11619;50.140;8.518;2023-12-07T01:10:44;14.25;;;10.73;;
22904;SDS011;11619;50.140;8.518;2023-12-07T01:13:11;12.88;;;10.15;;
22904;SDS011;11619;50.140;8.518;2023-12-07T01:15:37;11.50;;;10.25;;
22904;SDS011;11619;50.140;8.518;2023-12-07T01:18:04;16.70;;;10.98;;
22904;SDS011;11619;50.140;8.518;2023-12-07T01:20:30;13.68;;;11.63;;
22904;SDS011;11619;50.140;8.518;2023-12-07T01:22:57;12.77;;;10.13;;
22904;SDS011;11619;50.140;8.518;2023-12-07T01:25:23;13.77;;;11.25;;
22904;SDS011;11619;50.140;8.518;2023-12-07T01:27:50;14.02;;;11.48;;
22904;SDS011;11619;50.140;8.518;2023-12-07T01:30:17;14.57;;;11.55;;
22904;SDS011;11619;50.140;8.518;2023-12-07T01:32:43;14.80;;;11.27;;
22904;SDS011;11619;50.140;8.518;2023-12-07T01:35:10;13.93;;;10.95;;
22904;SDS011;11619;50.140;8.518;2023-12-07T01:37:37;18.98;;;12.27;;
22904;SDS011;11619;50.140;8.518;2023-12-07T01:40:03;18.42;;;13.05;;
22904;SDS011;11619;50.140;8.518;2023-12-07T01:42:36;18.30;;;12.52;;
22904;SDS011;11619;50.140;8.518;2023-12-07T01:45:04;18.55;;;13.20;;
22904;SDS011;11619;50.140;8.518;2023-12-07T01:47:32;15.95;;;12.63;;
22904;SDS011;11619;50.140;8.518;2023-12-07T01:50:00;15.93;;;12.45;;
22904;SDS011;11619;50.140;8.518;2023-12-07T01:52:27;15.55;;;11.25;;
22904;SDS011;11619;50.140;8.518;2023-12-07T01:54:54;15.18;;;11.98;;
22904;SDS011;11619;50.140;8.518;2023-12-07T01:57:21;15.23;;;11.30;;
22904;SDS011;11619;50.140;8.518;2023-12-07T01:59:48;13.25;;;11.35;;
22904;SDS011;11619;50.140;8.518;2023-12-07T02:02:15;14.15;;;10.80;;
22904;SDS011;11619;50.140;8.518;2023-12-07T02:04:41;14.52;;;11.10;;
22904;SDS011;11619;50.140;8.518;2023-12-07T02:07:08;11.10;;;9.18;;
22904;SDS011;11619;50.140;8.518;2023-12-07T02:09:35;12.60;;;9.73;;
22904;SDS011;11619;50.140;8.518;2023-12-07T02:12:01;10.38;;;8.93;;
22904;SDS011;11619;50.140;8.518;2023-12-07T02:14:28;11.63;;;9.20;;
22904;SDS011;11619;50.140;8.518;2023-12-07T02:16:56;13.50;;;8.70;;
22904;SDS011;11619;50.140;8.518;2023-12-07T02:22:07;12.45;;;9.70;;
22904;SDS011;11619;50.140;8.518;2023-12-07T02:24:39;12.43;;;9.63;;
22904;SDS011;11619;50.140;8.518;2023-12-07T02:27:34;12.02;;;9.95;;
22904;SDS011;11619;50.140;8.518;2023-12-07T02:30:02;10.00;;;9.00;;
22904;SDS011;11619;50.140;8.518;2023-12-07T02:32:28;10.48;;;9.38;;
22904;SDS011;11619;50.140;8.518;2023-12-07T02:34:55;14.02;;;9.95;;
22904;SDS011;11619;50.140;8.518;2023-12-07T02:37:22;18.88;;;10.68;;
22904;SDS011;11619;50.140;8.518;2023-12-07T02:39:50;23.73;;;12.25;;
22904;SDS011;11619;50.140;8.518;2023-12-07T02:42:17;14.10;;;11.95;;
22904;SDS011;11619;50.140;8.518;2023-12-07T02:44:44;14.13;;;11.15;;
22904;SDS011;11619;50.140;8.518;2023-12-07T02:47:11;14.10;;;12.45;;
22904;SDS011;11619;50.140;8.518;2023-12-07T02:49:37;14.40;;;12.07;;
22904;SDS011;11619;50.140;8.518;2023-12-07T02:52:04;20.08;;;11.68;;
22904;SDS011;11619;50.140;8.518;2023-12-07T02:54:31;15.40;;;11.68;;
22904;SDS011;11619;50.140;8.518;2023-12-07T02:56:57;12.18;;;10.68;;
22904;SDS011;11619;50.140;8.518;2023-12-07T02:59:25;12.30;;;10.40;;
22904;SDS011;11619;50.140;8.518;2023-12-07T03:01:51;15.35;;;11.63;;
22904;SDS011;11619;50.140;8.518;2023-12-07T03:04:18;13.77;;;10.50;;
22904;SDS011;11619;50.140;8.518;2023-12-07T03:06:44;16.25;;;11.38;;
22904;SDS011;11619;50.140;8.518;2023-12-07T03:09:11;11.27;;;10.13;;
22904;SDS011;11619;50.140;8.518;2023-12-07T03:11:37;14.65;;;11.00;;
22904;SDS011;11619;50.140;8.518;2023-12-07T03:14:04;12.15;;;9.98;;
22904;SDS011;11619;50.140;8.518;2023-12-07T03:16:30;12.05;;;9.98;;
22904;SDS011;11619;50.140;8.518;2023-12-07T03:18:56;12.18;;;10.55;;
22904;SDS011;11619;50.140;8.518;2023-12-07T03:21:23;12.82;;;9.90;;
22904;SDS011;11619;50.140;8.518;2023-12-07T03:23:49;11.75;;;10.07;;
22904;SDS011;11619;50.140;8.518;2023-12-07T03:26:16;10.55;;;9.27;;
22904;SDS011;11619;50.140;8.518;2023-12-07T03:28:43;12.00;;;8.93;;
22904;SDS011;11619;50.140;8.518;2023-12-07T03:31:09;12.40;;;10.93;;
22904;SDS011;11619;50.140;8.518;2023-12-07T03:33:36;15.10;;;11.20;;
22904;SDS011;11619;50.140;8.518;2023-12-07T03:36:02;14.23;;;10.52;;
22904;SDS011;11619;50.140;8.518;2023-12-07T03:38:29;12.75;;;10.68;;
22904;SDS011;11619;50.140;8.518;2023-12-07T03:40:55;12.77;;;10.05;;
22904;SDS011;11619;50.140;8.518;2023-12-07T03:43:22;11.75;;;9.90;;
22904;SDS011;11619;50.140;8.518;2023-12-07T03:45:48;12.85;;;10.23;;
22904;SDS011;11619;50.140;8.518;2023-12-07T03:48:15;13.27;;;10.25;;
22904;SDS011;11619;50.140;8.518;2023-12-07T03:50:42;11.40;;;9.60;;
22904;SDS011;11619;50.140;8.518;2023-12-07T03:53:08;11.95;;;10.32;;
22904;SDS011;11619;50.140;8.518;2023-12-07T03:55:35;12.93;;;10.45;;
22904;SDS011;11619;50.140;8.518;2023-12-07T03:58:03;14.90;;;10.93;;
22904;SDS011;11619;50.140;8.518;2023-12-07T04:00:29;12.95;;;10.55;;
22904;SDS011;11619;50.140;8.518;2023-12-07T04:02:55;14.98;;;12.40;;
22904;SDS011;11619;50.140;8.518;2023-12-07T04:05:22;14.90;;;12.45;;
22904;SDS011;11619;50.140;8.518;2023-12-07T04:07:48;16.50;;;12.65;;
22904;SDS011;11619;50.140;8.518;2023-12-07T04:10:15;14.60;;;12.02;;
22904;SDS011;11619;50.140;8.518;2023-12-07T04:12:41;17.58;;;11.80;;
22904;SDS011;11619;50.140;8.518;2023-12-07T04:15:08;15.00;;;11.45;;
22904;SDS011;11619;50.140;8.518;2023-12-07T04:17:34;19.15;;;12.15;;
22904;SDS011;11619;50.140;8.518;2023-12-07T04:20:01;14.48;;;11.48;;
22904;SDS011;11619;50.140;8.518;2023-12-07T04:22:28;12.13;;;10.65;;
22904;SDS011;11619;50.140;8.518;2023-12-07T04:24:55;14.32;;;12.25;;
22904;SDS011;11619;50.140;8.518;2023-12-07T04:27:21;13.60;;;11.95;;
22904;SDS011;11619;50.140;8.518;2023-12-07T04:29:48;12.77;;;11.38;;
22904;SDS011;11619;50.140;8.518;2023-12-07T04:32:14;14.07;;;11.40;;
22904;SDS011;11619;50.140;8.518;2023-12-07T04:34:41;14.52;;;11.90;;
22904;SDS011;11619;50.140;8.518;2023-12-07T04:37:07;15.73;;;11.30;;
22904;SDS011;11619;50.140;8.518;2023-12-07T04:39:35;15.63;;;12.30;;
22904;SDS011;11619;50.140;8.518;2023-12-07T04:42:02;16.77;;;12.10;;
22904;SDS011;11619;50.140;8.518;2023-12-07T04:44:28;18.67;;;13.18;;
22904;SDS011;11619;50.140;8.518;2023-12-07T04:46:55;16.10;;;12.20;;
22904;SDS011;11619;50.140;8.518;2023-12-07T04:49:21;13.30;;;11.90;;
22904;SDS011;11619;50.140;8.518;2023-12-07T04:51:48;13.63;;;11.40;;
22904;SDS011;11619;50.140;8.518;2023-12-07T04:54:14;14.02;;;11.10;;
22904;SDS011;11619;50.140;8.518;2023-12-07T04:56:45;15.27;;;11.10;;
22904;SDS011;11619;50.140;8.518;2023-12-07T04:59:11;13.00;;;10.75;;
22904;SDS011;11619;50.140;8.518;2023-12-07T05:01:38;18.27;;;11.57;;
22904;SDS011;11619;50.140;8.518;2023-12-07T05:04:05;13.88;;;11.75;;
22904;SDS011;11619;50.140;8.518;2023-12-07T05:06:32;17.52;;;12.40;;
22904;SDS011;11619;50.140;8.518;2023-12-07T05:08:58;14.45;;;11.50;;
22904;SDS011;11619;50.140;8.518;2023-12-07T05:11:25;17.55;;;12.75;;
22904;SDS011;11619;50.140;8.518;2023-12-07T05:13:52;15.57;;;11.80;;
22904;SDS011;11619;50.140;8.518;2023-12-07T05:16:19;13.68;;;11.05;;
22904;SDS011;11619;50.140;8.518;2023-12-07T05:18:45;15.88;;;11.80;;
22904;SDS011;11619;50.140;8.518;2023-12-07T05:21:12;14.43;;;11.07;;
22904;SDS011;11619;50.140;8.518;2023-12-07T05:23:39;14.10;;;10.55;;
22904;SDS011;11619;50.140;8.518;2023-12-07T05:26:05;13.82;;;11.13;;
22904;SDS011;11619;50.140;8.518;2023-12-07T05:28:35;13.73;;;11.20;;
22904;SDS011;11619;50.140;8.518;2023-12-07T05:31:02;12.85;;;11.55;;
22904;SDS011;11619;50.140;8.518;2023-12-07T05:33:28;14.13;;;11.38;;
22904;SDS011;11619;50.140;8.518;2023-12-07T05:35:55;14.25;;;11.25;;
22904;SDS011;11619;50.140;8.518;2023-12-07T05:38:21;13.23;;;10.88;;
22904;SDS011;11619;50.140;8.518;2023-12-07T05:40:48;15.18;;;11.82;;
22904;SDS011;11619;50.140;8.518;2023-12-07T05:43:15;14.90;;;11.07;;
22904;SDS011;11619;50.140;8.518;2023-12-07T05:45:43;14.18;;;11.57;;
22904;SDS011;11619;50.140;8.518;2023-12-07T05:48:10;12.73;;;10.45;;
22904;SDS011;11619;50.140;8.518;2023-12-07T05:50:37;11.55;;;10.38;;
22904;SDS011;11619;50.140;8.518;2023-12-07T05:53:06;11.45;;;10.25;;
22904;SDS011;11619;50.140;8.518;2023-12-07T05:55:32;13.18;;;10.70;;
22904;SDS011;11619;50.140;8.518;2023-12-07T05:57:59;14.75;;;10.43;;
22904;SDS011;11619;50.140;8.518;2023-12-07T06:00:26;12.07;;;9.77;;
22904;SDS011;11619;50.140;8.518;2023-12-07T06:02:52;16.88;;;11.15;;
22904;SDS011;11619;50.140;8.518;2023-12-07T06:05:19;15.73;;;11.65;;
22904;SDS011;11619;50.140;8.518;2023-12-07T06:07:45;13.90;;;10.18;;
22904;SDS011;11619;50.140;8.518;2023-12-07T06:10:17;13.52;;;10.80;;
22904;SDS011;11619;50.140;8.518;2023-12-07T06:12:49;11.35;;;10.15;;
22904;SDS011;11619;50.140;8.518;2023-12-07T06:15:16;13.52;;;10.48;;
22904;SDS011;11619;50.140;8.518;2023-12-07T06:17:42;16.38;;;10.93;;
22904;SDS011;11619;50.140;8.518;2023-12-07T06:20:09;13.25;;;10.00;;
22904;SDS011;11619;50.140;8.518;2023-12-07T06:22:36;13.07;;;10.30;;
22904;SDS011;11619;50.140;8.518;2023-12-07T06:25:02;15.48;;;11.02;;
22904;SDS011;11619;50.140;8.518;2023-12-07T06:27:29;12.70;;;9.88;;
22904;SDS011;11619;50.140;8.518;2023-12-07T06:29:55;14.13;;;11.20;;
22904;SDS011;11619;50.140;8.518;2023-12-07T06:32:22;13.02;;;9.82;;
22904;SDS011;11619;50.140;8.518;2023-12-07T06:34:49;12.82;;;10.75;;
22904;SDS011;11619;50.140;8.518;2023-12-07T06:37:15;13.50;;;11.07;;
22904;SDS011;11619;50.140;8.518;2023-12-07T06:39:43;12.68;;;10.93;;
22904;SDS011;11619;50.140;8.518;2023-12-07T06:42:10;14.13;;;10.60;;
22904;SDS011;11619;50.140;8.518;2023-12-07T06:44:36;19.90;;;11.05;;
22904;SDS011;11619;50.140;8.518;2023-12-07T06:47:03;29.35;;;20.80;;
22904;SDS011;11619;50.140;8.518;2023-12-07T06:49:30;35.22;;;23.05;;
22904;SDS011;11619;50.140;8.518;2023-12-07T06:52:12;33.85;;;24.80;;
22904;SDS011;11619;50.140;8.518;2023-12-07T06:54:39;27.58;;;18.75;;
22904;SDS011;11619;50.140;8.518;2023-12-07T06:57:05;19.27;;;15.23;;
22904;SDS011;11619;50.140;8.518;2023-12-07T06:59:35;12.88;;;11.57;;
22904;SDS011;11619;50.140;8.518;2023-12-07T07:02:02;14.02;;;10.18;;
22904;SDS011;11619;50.140;8.518;2023-12-07T07:04:30;11.80;;;8.95;;
22904;SDS011;11619;50.140;8.518;2023-12-07T07:06:56;11.52;;;9.77;;
22904;SDS011;11619;50.140;8.518;2023-12-07T07:09:23;12.48;;;10.27;;
22904;SDS011;11619;50.140;8.518;2023-12-07T07:11:50;11.25;;;9.43;;
22904;SDS011;11619;50.140;8.518;2023-12-07T07:14:17;12.70;;;11.07;;
22904;SDS011;11619;50.140;8.518;2023-12-07T07:16:44;13.73;;;10.38;;
22904;SDS011;11619;50.140;8.518;2023-12-07T07:19:11;13.10;;;10.32;;
22904;SDS011;11619;50.140;8.518;2023-12-07T07:21:38;15.82;;;11.02;;
22904;SDS011;11619;50.140;8.518;2023-12-07T07:24:04;20.58;;;13.63;;
22904;SDS011;11619;50.140;8.518;2023-12-07T07:26:33;16.98;;;13.98;;
22904;SDS011;11619;50.140;8.518;2023-12-07T07:29:00;22.88;;;16.73;;
22904;SDS011;11619;50.140;8.518;2023-12-07T07:31:26;20.98;;;15.70;;
22904;SDS011;11619;50.140;8.518;2023-12-07T07:33:53;19.25;;;15.73;;
22904;SDS011;11619;50.140;8.518;2023-12-07T07:36:26;18.15;;;15.18;;
22904;SDS011;11619;50.140;8.518;2023-12-07T07:38:53;17.48;;;14.20;;
22904;SDS011;11619;50.140;8.518;2023-12-07T07:41:20;14.88;;;12.45;;
22904;SDS011;11619;50.140;8.518;2023-12-07T07:43:47;15.15;;;11.80;;
22904;SDS011;11619;50.140;8.518;2023-12-07T07:46:13;16.00;;;12.27;;
22904;SDS011;11619;50.140;8.518;2023-12-07T07:48:40;15.90;;;11.45;;
22904;SDS011;11619;50.140;8.518;2023-12-07T07:51:07;12.75;;;10.00;;
22904;SDS011;11619;50.140;8.518;2023-12-07T07:53:33;12.40;;;10.40;;
22904;SDS011;11619;50.140;8.518;2023-12-07T07:56:00;13.10;;;10.02;;
22904;SDS011;11619;50.140;8.518;2023-12-07T07:58:27;14.93;;;10.93;;
22904;SDS011;11619;50.140;8.518;2023-12-07T08:00:54;12.52;;;9.32;;
22904;SDS011;11619;50.140;8.518;2023-12-07T08:03:20;13.40;;;9.90;;
22904;SDS011;11619;50.140;8.518;2023-12-07T08:05:48;17.10;;;9.85;;
22904;SDS011;11619;50.140;8.518;2023-12-07T08:08:17;12.35;;;9.57;;
22904;SDS011;11619;50.140;8.518;2023-12-07T08:11:02;14.05;;;8.82;;
22904;SDS011;11619;50.140;8.518;2023-12-07T08:13:48;11.32;;;9.48;;
22904;SDS011;11619;50.140;8.518;2023-12-07T08:16:27;13.65;;;9.40;;
22904;SDS011;11619;50.140;8.518;2023-12-07T08:18:56;11.05;;;9.05;;
22904;SDS011;11619;50.140;8.518;2023-12-07T08:21:24;13.57;;;9.43;;
22904;SDS011;11619;50.140;8.518;2023-12-07T08:23:57;12.90;;;9.70;;
22904;SDS011;11619;50.140;8.518;2023-12-07T08:26:29;12.67;;;9.47;;
22904;SDS011;11619;50.140;8.518;2023-12-07T08:28:56;11.73;;;8.88;;
22904;SDS011;11619;50.140;8.518;2023-12-07T08:31:22;10.95;;;7.90;;
22904;SDS011;11619;50.140;8.518;2023-12-07T08:33:51;13.15;;;9.48;;
22904;SDS011;11619;50.140;8.518;2023-12-07T08:36:19;10.98;;;8.70;;
22904;SDS011;11619;50.140;8.518;2023-12-07T08:38:46;12.20;;;8.93;;
22904;SDS011;11619;50.140;8.518;2023-12-07T08:41:12;10.98;;;8.85;;
22904;SDS011;11619;50.140;8.518;2023-12-07T08:43:40;12.30;;;9.27;;
22904;SDS011;11619;50.140;8.518;2023-12-07T08:46:07;12.02;;;9.63;;
22904;SDS011;11619;50.140;8.518;2023-12-07T08:48:35;12.02;;;8.98;;
22904;SDS011;11619;50.140;8.518;2023-12-07T08:51:08;13.77;;;11.48;;
22904;SDS011;11619;50.140;8.518;2023-12-07T08:53:35;14.65;;;11.30;;
22904;SDS011;11619;50.140;8.518;2023-12-07T08:56:04;15.68;;;11.70;;
22904;SDS011;11619;50.140;8.518;2023-12-07T08:58:32;18.92;;;12.77;;
22904;SDS011;11619;50.140;8.518;2023-12-07T09:00:58;17.42;;;13.00;;
22904;SDS011;11619;50.140;8.518;2023-12-07T09:03:28;18.92;;;13.25;;
22904;SDS011;11619;50.140;8.518;2023-12-07T09:05:59;18.27;;;15.18;;
22904;SDS011;11619;50.140;8.518;2023-12-07T09:08:27;26.50;;;19.23;;
22904;SDS011;11619;50.140;8.518;2023-12-07T09:10:54;22.95;;;17.13;;
22904;SDS011;11619;50.140;8.518;2023-12-07T09:13:21;20.75;;;16.35;;
22904;SDS011;11619;50.140;8.518;2023-12-07T09:15:48;18.17;;;14.65;;
22904;SDS011;11619;50.140;8.518;2023-12-07T09:18:15;15.95;;;13.30;;
22904;SDS011;11619;50.140;8.518;2023-12-07T09:20:41;17.80;;;13.38;;
22904;SDS011;11619;50.140;8.518;2023-12-07T09:23:17;17.92;;;14.38;;
22904;SDS011;11619;50.140;8.518;2023-12-07T09:25:43;15.85;;;13.98;;
22904;SDS011;11619;50.140;8.518;2023-12-07T09:28:10;19.63;;;15.43;;
22904;SDS011;11619;50.140;8.518;2023-12-07T09:30:37;34.15;;;23.42;;
22904;SDS011;11619;50.140;8.518;2023-12-07T09:33:07;27.95;;;20.80;;
22904;SDS011;11619;50.140;8.518;2023-12-07T09:35:35;25.92;;;18.17;;
22904;SDS011;11619;50.140;8.518;2023-12-07T09:38:05;22.77;;;16.63;;
22904;SDS011;11619;50.140;8.518;2023-12-07T09:40:33;22.45;;;16.52;;
22904;SDS011;11619;50.140;8.518;2023-12-07T09:43:03;17.48;;;13.80;;
22904;SDS011;11619;50.140;8.518;2023-12-07T09:45:33;19.92;;;15.73;;
22904;SDS011;11619;50.140;8.518;2023-12-07T09:48:00;19.73;;;15.35;;
22904;SDS011;11619;50.140;8.518;2023-12-07T09:50:31;22.20;;;16.80;;
22904;SDS011;11619;50.140;8.518;2023-12-07T09:52:58;18.08;;;16.00;;
22904;SDS011;11619;50.140;8.518;2023-12-07T09:55:34;19.05;;;15.13;;
22904;SDS011;11619;50.140;8.518;2023-12-07T09:58:05;19.83;;;16.13;;
22904;SDS011;11619;50.140;8.518;2023-12-07T10:00:34;21.48;;;16.00;;
22904;SDS011;11619;50.140;8.518;2023-12-07T10:03:01;21.27;;;17.42;;
22904;SDS011;11619;50.140;8.518;2023-12-07T10:05:28;25.30;;;17.58;;
22904;SDS011;11619;50.140;8.518;2023-12-07T10:07:54;23.73;;;17.23;;
22904;SDS011;11619;50.140;8.518;2023-12-07T10:10:21;23.40;;;15.82;;
22904;SDS011;11619;50.140;8.518;2023-12-07T10:15:17;22.13;;;16.75;;
22904;SDS011;11619;50.140;8.518;2023-12-07T10:17:55;23.73;;;16.38;;
22904;SDS011;11619;50.140;8.518;2023-12-07T10:20:23;20.30;;;15.27;;
22904;SDS011;11619;50.140;8.518;2023-12-07T10:23:04;18.95;;;15.85;;
22904;SDS011;11619;50.140;8.518;2023-12-07T10:25:38;20.83;;;16.33;;
22904;SDS011;11619;50.140;8.518;2023-12-07T10:28:05;21.00;;;14.45;;
22904;SDS011;11619;50.140;8.518;2023-12-07T10:30:34;24.85;;;15.55;;
22904;SDS011;11619;50.140;8.518;2023-12-07T10:33:06;18.90;;;14.93;;
22904;SDS011;11619;50.140;8.518;2023-12-07T10:35:39;20.27;;;15.40;;
22904;SDS011;11619;50.140;8.518;2023-12-07T10:38:07;20.33;;;15.27;;
22904;SDS011;11619;50.140;8.518;2023-12-07T10:40:33;20.48;;;15.65;;
22904;SDS011;11619;50.140;8.518;2023-12-07T10:43:01;21.35;;;16.65;;
22904;SDS011;11619;50.140;8.518;2023-12-07T10:45:31;20.25;;;15.90;;
22904;SDS011;11619;50.140;8.518;2023-12-07T10:48:07;23.60;;;16.85;;
22904;SDS011;11619;50.140;8.518;2023-12-07T10:50:35;23.13;;;17.95;;
22904;SDS011;11619;50.140;8.518;2023-12-07T10:53:27;22.40;;;17.80;;
22904;SDS011;11619;50.140;8.518;2023-12-07T10:55:59;22.73;;;18.27;;
22904;SDS011;11619;50.140;8.518;2023-12-07T10:58:26;24.13;;;17.77;;
22904;SDS011;11619;50.140;8.518;2023-12-07T11:00:54;24.52;;;18.65;;
22904;SDS011;11619;50.140;8.518;2023-12-07T11:03:22;30.10;;;22.30;;
22904;SDS011;11619;50.140;8.518;2023-12-07T11:05:49;34.05;;;24.55;;
22904;SDS011;11619;50.140;8.518;2023-12-07T11:08:28;35.47;;;26.00;;
22904;SDS011;11619;50.140;8.518;2023-12-07T11:11:03;41.72;;;26.23;;
22904;SDS011;11619;50.140;8.518;2023-12-07T11:13:33;40.67;;;26.95;;
22904;SDS011;11619;50.140;8.518;2023-12-07T11:16:02;36.88;;;24.08;;
22904;SDS011;11619;50.140;8.518;2023-12-07T11:18:32;32.20;;;23.98;;
22904;SDS011;11619;50.140;8.518;2023-12-07T11:20:59;36.15;;;24.30;;
22904;SDS011;11619;50.140;8.518;2023-12-07T11:23:27;35.78;;;24.15;;
22904;SDS011;11619;50.140;8.518;2023-12-07T11:25:55;36.03;;;23.83;;
22904;SDS011;11619;50.140;8.518;2023-12-07T11:28:37;36.13;;;22.58;;
22904;SDS011;11619;50.140;8.518;2023-12-07T11:31:07;35.20;;;23.08;;
22904;SDS011;11619;50.140;8.518;2023-12-07T11:33:37;33.35;;;23.60;;
22904;SDS011;11619;50.140;8.518;2023-12-07T11:36:04;36.20;;;23.60;;
22904;SDS011;11619;50.140;8.518;2023-12-07T11:38:32;39.08;;;23.58;;
22904;SDS011;11619;50.140;8.518;2023-12-07T11:40:59;41.20;;;25.48;;
22904;SDS011;11619;50.140;8.518;2023-12-07T11:45:58;41.20;;;26.42;;
22904;SDS011;11619;50.140;8.518;2023-12-07T11:48:25;44.20;;;26.83;;
22904;SDS011;11619;50.140;8.518;2023-12-07T11:53:31;45.75;;;30.80;;
22904;SDS011;11619;50.140;8.518;2023-12-07T11:56:00;48.30;;;30.80;;
22904;SDS011;11619;50.140;8.518;2023-12-07T11:58:28;50.33;;;31.45;;
22904;SDS011;11619;50.140;8.518;2023-12-07T12:00:55;57.42;;;34.40;;
22904;SDS011;11619;50.140;8.518;2023-12-07T12:03:23;51.35;;;33.30;;
22904;SDS011;11619;50.140;8.518;2023-12-07T12:05:54;59.38;;;33.28;;
22904;SDS011;11619;50.140;8.518;2023-12-07T12:08:21;55.50;;;33.63;;
22904;SDS011;11619;50.140;8.518;2023-12-07T12:10:49;51.45;;;33.38;;
22904;SDS011;11619;50.140;8.518;2023-12-07T12:13:17;51.42;;;33.38;;
22904;SDS011;11619;50.140;8.518;2023-12-07T12:15:45;54.00;;;32.92;;
22904;SDS011;11619;50.140;8.518;2023-12-07T12:18:14;51.20;;;33.13;;
22904;SDS011;11619;50.140;8.518;2023-12-07T12:20:44;52.08;;;30.30;;
22904;SDS011;11619;50.140;8.518;2023-12-07T12:23:11;46.95;;;30.75;;
22904;SDS011;11619;50.140;8.518;2023-12-07T12:25:37;49.55;;;30.08;;
22904;SDS011;11619;50.140;8.518;2023-12-07T12:28:06;49.22;;;30.08;;
22904;SDS011;11619;50.140;8.518;2023-12-07T12:30:33;50.58;;;30.98;;
22904;SDS011;11619;50.140;8.518;2023-12-07T12:33:00;53.92;;;32.00;;
22904;SDS011;11619;50.140;8.518;2023-12-07T12:35:28;50.08;;;31.70;;
22904;SDS011;11619;50.140;8.518;2023-12-07T12:37:55;52.70;;;32.55;;
22904;SDS011;11619;50.140;8.518;2023-12-07T12:40:22;53.47;;;31.50;;
22904;SDS011;11619;50.140;8.518;2023-12-07T12:42:50;48.55;;;29.15;;
22904;SDS011;11619;50.140;8.518;2023-12-07T12:45:21;55.38;;;30.13;;
22904;SDS011;11619;50.140;8.518;2023-12-07T12:47:48;47.60;;;28.38;;
22904;SDS011;11619;50.140;8.518;2023-12-07T12:53:00;49.65;;;26.73;;
22904;SDS011;11619;50.140;8.518;2023-12-07T12:55:30;50.55;;;28.02;;
22904;SDS011;11619;50.140;8.518;2023-12-07T12:57:57;53.75;;;29.35;;
22904;SDS011;11619;50.140;8.518;2023-12-07T13:00:24;53.83;;;28.23;;
22904;SDS011;11619;50.140;8.518;2023-12-07T13:02:51;51.75;;;30.02;;
22904;SDS011;11619;50.140;8.518;2023-12-07T13:05:17;57.17;;;31.20;;
22904;SDS011;11619;50.140;8.518;2023-12-07T13:07:44;55.83;;;34.47;;
22904;SDS011;11619;50.140;8.518;2023-12-07T13:10:11;52.42;;;28.85;;
22904;SDS011;11619;50.140;8.518;2023-12-07T13:12:38;52.00;;;32.03;;
22904;SDS011;11619;50.140;8.518;2023-12-07T13:15:04;51.92;;;31.10;;
22904;SDS011;11619;50.140;8.518;2023-12-07T13:17:31;51.85;;;29.85;;
22904;SDS011;11619;50.140;8.518;2023-12-07T13:19:58;47.75;;;28.85;;
22904;SDS011;11619;50.140;8.518;2023-12-07T13:22:24;50.55;;;28.83;;
22904;SDS011;11619;50.140;8.518;2023-12-07T13:24:51;52.80;;;28.35;;
22904;SDS011;11619;50.140;8.518;2023-12-07T13:27:18;54.30;;;29.52;;
22904;SDS011;11619;50.140;8.518;2023-12-07T13:29:45;49.40;;;28.85;;
22904;SDS011;11619;50.140;8.518;2023-12-07T13:32:11;51.72;;;30.08;;
22904;SDS011;11619;50.140;8.518;2023-12-07T13:34:38;54.30;;;31.38;;
22904;SDS011;11619;50.140;8.518;2023-12-07T13:37:05;55.65;;;31.42;;
22904;SDS011;11619;50.140;8.518;2023-12-07T13:39:32;52.90;;;30.80;;
22904;SDS011;11619;50.140;8.518;2023-12-07T13:41:59;58.35;;;32.17;;
22904;SDS011;11619;50.140;8.518;2023-12-07T13:44:30;57.35;;;31.35;;
22904;SDS011;11619;50.140;8.518;2023-12-07T13:46:58;57.97;;;32.72;;
22904;SDS011;11619;50.140;8.518;2023-12-07T13:49:26;60.38;;;33.92;;
22904;SDS011;11619;50.140;8.518;2023-12-07T13:52:00;58.53;;;33.22;;
22904;SDS011;11619;50.140;8.518;2023-12-07T13:54:34;62.28;;;35.33;;
22904;SDS011;11619;50.140;8.518;2023-12-07T13:57:19;65.13;;;34.45;;
22904;SDS011;11619;50.140;8.518;2023-12-07T13:59:46;62.50;;;33.67;;
22904;SDS011;11619;50.140;8.518;2023-12-07T14:02:13;69.90;;;36.50;;
22904;SDS011;11619;50.140;8.518;2023-12-07T14:04:39;67.90;;;35.10;;
22904;SDS011;11619;50.140;8.518;2023-12-07T14:07:12;65.53;;;35.90;;
22904;SDS011;11619;50.140;8.518;2023-12-07T14:09:40;61.35;;;32.78;;
22904;SDS011;11619;50.140;8.518;2023-12-07T14:12:22;51.75;;;31.50;;
22904;SDS011;11619;50.140;8.518;2023-12-07T14:14:49;59.50;;;33.63;;
22904;SDS011;11619;50.140;8.518;2023-12-07T14:17:16;57.05;;;32.13;;
22904;SDS011;11619;50.140;8.518;2023-12-07T14:19:45;37.38;;;20.25;;
22904;SDS011;11619;50.140;8.518;2023-12-07T14:22:13;68.47;;;27.77;;
22904;SDS011;11619;50.140;8.518;2023-12-07T14:24:40;91.57;;;38.30;;
22904;SDS011;11619;50.140;8.518;2023-12-07T14:27:06;74.28;;;37.72;;
22904;SDS011;11619;50.140;8.518;2023-12-07T14:29:34;61.10;;;35.50;;
22904;SDS011;11619;50.140;8.518;2023-12-07T14:32:01;48.25;;;30.95;;
22904;SDS011;11619;50.140;8.518;2023-12-07T14:34:30;47.28;;;30.67;;
22904;SDS011;11619;50.140;8.518;2023-12-07T14:37:01;43.40;;;28.55;;
22904;SDS011;11619;50.140;8.518;2023-12-07T14:39:29;45.05;;;29.27;;
22904;SDS011;11619;50.140;8.518;2023-12-07T14:41:55;41.40;;;27.73;;